SCFASANT

Guest
Details From SCFA - Cerro Moreno Intl
To SANT - Teniente Benjamin Matienzo
Flight Number -
Tags Generated
Created
Modified
Stats Distance 355 nm / 657 km
Max Altitude 0 ft / 0 m
Waypoints 3
Social Downloads 3
Likes 0
Share VATSIM

Download

Looking for another format? Having issues loading an existing format? Contact us
Advertisement - Login to hide

Notes

Generated

Route

SCFA TUC SANT

ID Type Via Altitude Latitude Longitude Leg Dist Tot Dist Heading (true) Name
O SCFA APT - 0 ft / 0 m -23.45613˚ -70.44663˚ - 0 nm - -
TUC VOR - 0 ft / 0 m -26.84583˚ -65.10833˚ 354 nm 354 nm 126° / 124° TUCUMAN VOR-DME
O SANT APT - 0 ft / 0 m -26.85366˚ -65.10709˚ 0 nm 354 nm 172° / 172° -

Altitude Profile

Advertisement - Login to hide

Weather


0- 5 10 15 20 25 30 35+ Temperature / ° C

Clouds and Precipitation
Forecast for 2017-12-15 12:00 UTC. Updated 2 hours ago

Ground ~20,000 ft ~40,000 ft Winds

SCFA

Details ICAO SCFA (ANF)
Name CERRO MORENO INTL
Region Chile
Timezone America/Santiago (UTC-3.0)
Stats Elevation 455 ft / 139 m (AMSL)
Location -23.444477° -70.445100°
Runways 1
Magnetic Variation 3.475° W

METAR

SCFA 151200Z 20003KT 9999 SCT013 SCT030 19/13 Q1014 NOSIG

Decode

TAF

TAF SCFA 151019Z 1512/1612 16004KT 9999 SCT030 TX21/1517Z TN16/1607Z BECMG 1515/1517 22014KT SCT020 BECMG 1522/1500 16008KT BKN015 BECMG 1606/1608 02004KT BKN023

Decode

Departure Runways

ID Width Length Bearing (true) Bearing (mag) Surface Threshold Offset Overrun Length
01 164 ft / 50 m 8,567 ft / 2,611 m 6.86° 10.33° Asphalt 0 ft / 0 m 50 ft / 15 m
19 164 ft / 50 m 8,567 ft / 2,611 m 186.86° 190.33° Asphalt 0 ft / 0 m 155 ft / 47 m

SANT

Details ICAO SANT (TUC)
Name Teniente Benjamin Matienzo
Region Argentina
Timezone America/Argentina/Tucuman (UTC-3.0)
Stats Elevation 1,494 ft / 455 m (AMSL)
Location -26.840800° -65.104601°
Runways 1
Magnetic Variation 6.931° W

METAR

SANT 151200Z 27004KT 7000 OVC040 23/18 Q1013

Decode

TAF

TAF SANT 151100Z 1512/1612 36005KT 8000 SCT030 FEW040TCU TX38/1518Z TN24/1610Z BECMG 1518/1521 16015KT 3000 TSRA BKN020 SCT040 FEW040CB BECMG 16006/16009 18010KT 8000 VCTS SCT015 BKN045 FEW045CVCB

Decode

Destination Runways

ID Width Length Bearing (true) Bearing (mag) Surface Threshold Offset Overrun Length
01 151 ft / 46 m 9,523 ft / 2,903 m 9.80° 16.73° Concrete 0 ft / 0 m 98 ft / 30 m
19 151 ft / 46 m 9,523 ft / 2,903 m 189.80° 196.73° Concrete 0 ft / 0 m 98 ft / 30 m

Approach Navaids

Runway Type Ident Frequency Range Bearing (true) Bearing (mag) Slope Elevation
01 Localiser TU 109.90 MHz 18 nm / 33 km 9.42° 16.35° - 1,439 ft / 439 m (AMSL)
01 Glidescope TU 109.90 MHz 10 nm / 19 km 9.80° 16.73° 3.00° 1,496 ft / 456 m (AMSL)